sensor_id;sensor_type;location;lat;lon;timestamp;pressure;altitude;pressure_sealevel;temperature;humidity
49979;BME280;35869;50.990;6.962;2023-03-23T00:01:38;100229.53;;;12.41;88.31
49979;BME280;35869;50.990;6.962;2023-03-23T00:06:38;100236.78;;;12.36;88.63
49979;BME280;35869;50.990;6.962;2023-03-23T00:11:38;100211.50;;;12.38;88.02
49979;BME280;35869;50.990;6.962;2023-03-23T00:16:40;100226.63;;;12.31;88.41
49979;BME280;35869;50.990;6.962;2023-03-23T00:21:42;100212.84;;;12.29;88.30
49979;BME280;35869;50.990;6.962;2023-03-23T00:26:46;100217.97;;;12.31;89.10
49979;BME280;35869;50.990;6.962;2023-03-23T00:31:48;100229.53;;;12.41;88.06
49979;BME280;35869;50.990;6.962;2023-03-23T00:36:51;100211.41;;;12.39;88.38
49979;BME280;35869;50.990;6.962;2023-03-23T00:41:52;100200.31;;;12.36;89.61
49979;BME280;35869;50.990;6.962;2023-03-23T00:46:53;100204.41;;;12.40;87.95
49979;BME280;35869;50.990;6.962;2023-03-23T00:51:57;100200.50;;;12.33;88.89
49979;BME280;35869;50.990;6.962;2023-03-23T00:56:58;100192.84;;;12.30;89.41
49979;BME280;35869;50.990;6.962;2023-03-23T01:01:58;100192.84;;;12.30;90.14
49979;BME280;35869;50.990;6.962;2023-03-23T01:06:58;100192.75;;;12.31;89.32
49979;BME280;35869;50.990;6.962;2023-03-23T01:11:58;100187.00;;;12.40;89.16
49979;BME280;35869;50.990;6.962;2023-03-23T01:16:58;100176.94;;;12.48;88.81
49979;BME280;35869;50.990;6.962;2023-03-23T01:21:59;100183.84;;;12.35;89.22
49979;BME280;35869;50.990;6.962;2023-03-23T01:26:59;100168.41;;;12.32;89.72
49979;BME280;35869;50.990;6.962;2023-03-23T01:31:59;100173.22;;;12.38;88.20
49979;BME280;35869;50.990;6.962;2023-03-23T01:36:59;100173.41;;;12.35;88.94
49979;BME280;35869;50.990;6.962;2023-03-23T01:41:59;100175.38;;;12.32;89.98
49979;BME280;35869;50.990;6.962;2023-03-23T01:47:00;100180.28;;;12.36;89.88
49979;BME280;35869;50.990;6.962;2023-03-23T01:52:07;100161.22;;;12.36;90.74
49979;BME280;35869;50.990;6.962;2023-03-23T01:57:13;100157.31;;;12.28;93.67
49979;BME280;35869;50.990;6.962;2023-03-23T02:02:15;100158.25;;;12.27;94.08
49979;BME280;35869;50.990;6.962;2023-03-23T02:07:16;100139.53;;;12.21;94.12
49979;BME280;35869;50.990;6.962;2023-03-23T02:12:18;100157.47;;;12.11;94.71
49979;BME280;35869;50.990;6.962;2023-03-23T02:17:34;100132.72;;;12.18;93.79
49979;BME280;35869;50.990;6.962;2023-03-23T02:28:19;100089.94;;;12.08;94.13
49979;BME280;35869;50.990;6.962;2023-03-23T02:33:40;100089.81;;;11.95;94.71
49979;BME280;35869;50.990;6.962;2023-03-23T02:44:03;100080.06;;;11.99;93.79
49979;BME280;35869;50.990;6.962;2023-03-23T02:49:05;100089.56;;;12.00;93.37
49979;BME280;35869;50.990;6.962;2023-03-23T02:54:07;100092.38;;;11.97;93.04
49979;BME280;35869;50.990;6.962;2023-03-23T02:59:07;100103.22;;;11.89;94.37
49979;BME280;35869;50.990;6.962;2023-03-23T03:04:17;100109.81;;;11.95;93.00
49979;BME280;35869;50.990;6.962;2023-03-23T03:09:20;100099.97;;;11.86;93.22
49979;BME280;35869;50.990;6.962;2023-03-23T03:14:28;100107.84;;;11.84;92.78
49979;BME280;35869;50.990;6.962;2023-03-23T03:19:37;100096.78;;;11.81;94.20
49979;BME280;35869;50.990;6.962;2023-03-23T03:24:41;100098.81;;;11.75;94.00
49979;BME280;35869;50.990;6.962;2023-03-23T03:29:45;100101.88;;;11.68;94.04
49979;BME280;35869;50.990;6.962;2023-03-23T03:34:46;100106.78;;;11.72;95.59
49979;BME280;35869;50.990;6.962;2023-03-23T03:39:46;100104.69;;;11.79;93.97
49979;BME280;35869;50.990;6.962;2023-03-23T03:44:46;100119.63;;;11.75;94.49
49979;BME280;35869;50.990;6.962;2023-03-23T03:49:46;100119.63;;;11.75;93.50
49979;BME280;35869;50.990;6.962;2023-03-23T03:54:46;100123.81;;;11.78;92.46
49979;BME280;35869;50.990;6.962;2023-03-23T03:59:47;100122.22;;;11.75;93.34
49979;BME280;35869;50.990;6.962;2023-03-23T04:04:48;100113.75;;;11.72;93.04
49979;BME280;35869;50.990;6.962;2023-03-23T04:09:48;100119.25;;;11.67;92.99
49979;BME280;35869;50.990;6.962;2023-03-23T04:14:48;100115.63;;;11.70;93.24
49979;BME280;35869;50.990;6.962;2023-03-23T04:19:49;100108.84;;;11.67;93.51
49979;BME280;35869;50.990;6.962;2023-03-23T04:24:49;100116.81;;;11.64;92.79
49979;BME280;35869;50.990;6.962;2023-03-23T04:29:49;100115.16;;;11.63;93.30
49979;BME280;35869;50.990;6.962;2023-03-23T04:34:49;100117.91;;;11.60;93.85
49979;BME280;35869;50.990;6.962;2023-03-23T04:39:49;100123.53;;;11.68;92.53
49979;BME280;35869;50.990;6.962;2023-03-23T04:44:50;100125.38;;;11.66;93.31
49979;BME280;35869;50.990;6.962;2023-03-23T04:49:50;100135.41;;;11.72;92.24
49979;BME280;35869;50.990;6.962;2023-03-23T04:54:50;100131.34;;;11.68;92.13
49979;BME280;35869;50.990;6.962;2023-03-23T04:59:50;100126.22;;;11.67;93.71
49979;BME280;35869;50.990;6.962;2023-03-23T05:04:51;100125.81;;;11.59;95.02
49979;BME280;35869;50.990;6.962;2023-03-23T05:09:51;100146.53;;;11.60;95.43
49979;BME280;35869;50.990;6.962;2023-03-23T05:14:51;100145.44;;;11.64;94.91
49979;BME280;35869;50.990;6.962;2023-03-23T05:19:52;100144.53;;;11.65;94.11
49979;BME280;35869;50.990;6.962;2023-03-23T05:24:52;100144.78;;;11.61;94.69
49979;BME280;35869;50.990;6.962;2023-03-23T05:29:53;100147.88;;;11.67;94.19
49979;BME280;35869;50.990;6.962;2023-03-23T05:34:53;100145.94;;;11.71;93.38
49979;BME280;35869;50.990;6.962;2023-03-23T05:39:53;100148.72;;;11.68;93.95
49979;BME280;35869;50.990;6.962;2023-03-23T05:44:53;100156.44;;;11.69;94.40
49979;BME280;35869;50.990;6.962;2023-03-23T05:49:54;100151.03;;;11.72;93.58
49979;BME280;35869;50.990;6.962;2023-03-23T05:54:54;100149.56;;;11.68;94.29
49979;BME280;35869;50.990;6.962;2023-03-23T05:59:54;100151.13;;;11.71;93.89
49979;BME280;35869;50.990;6.962;2023-03-23T06:04:55;100155.75;;;11.66;94.54
49979;BME280;35869;50.990;6.962;2023-03-23T06:09:55;100163.66;;;11.64;95.31
49979;BME280;35869;50.990;6.962;2023-03-23T06:14:55;100176.53;;;11.67;93.43
49979;BME280;35869;50.990;6.962;2023-03-23T06:19:55;100177.16;;;11.71;93.45
49979;BME280;35869;50.990;6.962;2023-03-23T06:24:56;100184.97;;;11.71;93.23
49979;BME280;35869;50.990;6.962;2023-03-23T06:29:56;100189.69;;;11.64;94.16
49979;BME280;35869;50.990;6.962;2023-03-23T06:34:56;100176.91;;;11.75;92.46
49979;BME280;35869;50.990;6.962;2023-03-23T06:39:56;100189.00;;;11.77;91.88
49979;BME280;35869;50.990;6.962;2023-03-23T06:44:56;100191.94;;;11.70;92.94
49979;BME280;35869;50.990;6.962;2023-03-23T06:49:57;100189.81;;;11.77;92.64
49979;BME280;35869;50.990;6.962;2023-03-23T06:54:58;100192.69;;;11.72;91.71
49979;BME280;35869;50.990;6.962;2023-03-23T06:59:58;100202.38;;;11.70;94.09
49979;BME280;35869;50.990;6.962;2023-03-23T07:04:58;100207.75;;;11.67;93.31
49979;BME280;35869;50.990;6.962;2023-03-23T07:09:58;100208.50;;;11.85;91.05
49979;BME280;35869;50.990;6.962;2023-03-23T07:14:59;100212.09;;;11.83;91.29
49979;BME280;35869;50.990;6.962;2023-03-23T07:19:59;100206.38;;;11.92;90.16
49979;BME280;35869;50.990;6.962;2023-03-23T07:24:59;100212.31;;;11.94;90.77
49979;BME280;35869;50.990;6.962;2023-03-23T07:29:59;100209.81;;;11.77;92.27
49979;BME280;35869;50.990;6.962;2023-03-23T07:34:59;100201.56;;;12.00;89.46
49979;BME280;35869;50.990;6.962;2023-03-23T07:40:00;100205.25;;;11.96;90.48
49979;BME280;35869;50.990;6.962;2023-03-23T07:45:00;100205.25;;;11.96;92.42
49979;BME280;35869;50.990;6.962;2023-03-23T07:50:00;100206.75;;;12.00;91.33
49979;BME280;35869;50.990;6.962;2023-03-23T07:55:01;100208.91;;;12.08;90.31
49979;BME280;35869;50.990;6.962;2023-03-23T08:00:02;100203.41;;;11.98;89.54
49979;BME280;35869;50.990;6.962;2023-03-23T08:05:02;100201.88;;;12.24;87.42
49979;BME280;35869;50.990;6.962;2023-03-23T08:10:03;100213.28;;;12.07;89.42
49979;BME280;35869;50.990;6.962;2023-03-23T08:15:05;100203.44;;;12.12;88.59
49979;BME280;35869;50.990;6.962;2023-03-23T08:20:06;100203.91;;;12.05;90.69
49979;BME280;35869;50.990;6.962;2023-03-23T08:25:07;100199.47;;;12.21;88.70
49979;BME280;35869;50.990;6.962;2023-03-23T08:30:10;100210.47;;;12.40;87.41
49979;BME280;35869;50.990;6.962;2023-03-23T08:35:12;100210.47;;;12.40;88.89
49979;BME280;35869;50.990;6.962;2023-03-23T08:40:14;100208.31;;;12.33;86.97
49979;BME280;35869;50.990;6.962;2023-03-23T08:45:17;100215.00;;;12.37;88.32
49979;BME280;35869;50.990;6.962;2023-03-23T08:50:24;100216.81;;;12.50;86.69
49979;BME280;35869;50.990;6.962;2023-03-23T08:55:24;100230.78;;;12.49;86.31
49979;BME280;35869;50.990;6.962;2023-03-23T09:00:25;100241.25;;;12.48;87.20
49979;BME280;35869;50.990;6.962;2023-03-23T09:05:26;100247.97;;;12.66;85.81
49979;BME280;35869;50.990;6.962;2023-03-23T09:10:28;100249.28;;;12.59;84.74
49979;BME280;35869;50.990;6.962;2023-03-23T09:15:28;100247.63;;;12.72;85.86
49979;BME280;35869;50.990;6.962;2023-03-23T09:20:29;100250.25;;;12.72;85.90
49979;BME280;35869;50.990;6.962;2023-03-23T09:25:29;100241.19;;;12.92;84.18
49979;BME280;35869;50.990;6.962;2023-03-23T09:30:32;100238.50;;;12.79;85.24
49979;BME280;35869;50.990;6.962;2023-03-23T09:35:33;100246.38;;;13.06;83.24
49979;BME280;35869;50.990;6.962;2023-03-23T09:40:43;100241.47;;;12.88;83.24
49979;BME280;35869;50.990;6.962;2023-03-23T09:51:23;100261.56;;;13.00;82.44
49979;BME280;35869;50.990;6.962;2023-03-23T09:56:29;100258.22;;;13.26;80.87
49979;BME280;35869;50.990;6.962;2023-03-23T10:01:36;100238.09;;;13.14;80.49
49979;BME280;35869;50.990;6.962;2023-03-23T10:06:37;100250.88;;;12.90;80.23
49979;BME280;35869;50.990;6.962;2023-03-23T10:17:15;100247.41;;;13.04;80.16
49979;BME280;35869;50.990;6.962;2023-03-23T10:22:23;100252.81;;;13.01;80.52
49979;BME280;35869;50.990;6.962;2023-03-23T10:32:56;100268.38;;;13.31;81.36
49979;BME280;35869;50.990;6.962;2023-03-23T10:38:05;100258.41;;;13.23;84.17
49979;BME280;35869;50.990;6.962;2023-03-23T10:43:08;100255.41;;;13.15;86.53
49979;BME280;35869;50.990;6.962;2023-03-23T10:48:13;100260.72;;;13.28;84.87
49979;BME280;35869;50.990;6.962;2023-03-23T10:58:33;100262.41;;;13.29;85.62
49979;BME280;35869;50.990;6.962;2023-03-23T11:03:40;100273.41;;;13.20;87.43
49979;BME280;35869;50.990;6.962;2023-03-23T11:08:52;100262.31;;;13.30;86.74
49979;BME280;35869;50.990;6.962;2023-03-23T11:19:21;100263.78;;;13.34;86.53
49979;BME280;35869;50.990;6.962;2023-03-23T11:24:23;100249.47;;;13.27;86.73
49979;BME280;35869;50.990;6.962;2023-03-23T11:29:27;100246.13;;;13.25;87.04
49979;BME280;35869;50.990;6.962;2023-03-23T11:34:37;100248.88;;;13.37;86.18
49979;BME280;35869;50.990;6.962;2023-03-23T11:44:54;100234.31;;;13.47;85.56
49979;BME280;35869;50.990;6.962;2023-03-23T11:55:15;100245.09;;;13.55;85.37
49979;BME280;35869;50.990;6.962;2023-03-23T12:00:20;100254.22;;;13.62;84.49
49979;BME280;35869;50.990;6.962;2023-03-23T12:21:41;100260.72;;;13.69;89.51
49979;BME280;35869;50.990;6.962;2023-03-23T12:32:26;100254.97;;;13.77;89.57
49979;BME280;35869;50.990;6.962;2023-03-23T12:48:28;100244.69;;;13.88;88.26
49979;BME280;35869;50.990;6.962;2023-03-23T12:53:46;100244.09;;;13.70;89.07
49979;BME280;35869;50.990;6.962;2023-03-23T12:58:53;100248.59;;;13.68;88.36
49979;BME280;35869;50.990;6.962;2023-03-23T13:04:01;100261.66;;;13.68;88.01
49979;BME280;35869;50.990;6.962;2023-03-23T13:09:22;100260.75;;;13.82;86.50
49979;BME280;35869;50.990;6.962;2023-03-23T13:14:41;100271.44;;;13.92;86.80
49979;BME280;35869;50.990;6.962;2023-03-23T13:31:12;100251.97;;;13.83;86.03
49979;BME280;35869;50.990;6.962;2023-03-23T13:36:13;100261.28;;;13.60;89.43
49979;BME280;35869;50.990;6.962;2023-03-23T13:41:16;100260.41;;;13.74;88.13
49979;BME280;35869;50.990;6.962;2023-03-23T13:46:28;100276.09;;;13.74;88.49
49979;BME280;35869;50.990;6.962;2023-03-23T13:51:51;100279.53;;;13.74;87.57
49979;BME280;35869;50.990;6.962;2023-03-23T13:57:00;100295.38;;;13.71;87.72
49979;BME280;35869;50.990;6.962;2023-03-23T14:07:56;100294.84;;;13.93;86.70
49979;BME280;35869;50.990;6.962;2023-03-23T14:12:58;100286.97;;;14.07;85.66
49979;BME280;35869;50.990;6.962;2023-03-23T14:18:01;100288.09;;;14.03;86.25
49979;BME280;35869;50.990;6.962;2023-03-23T14:23:03;100278.81;;;14.12;87.36
49979;BME280;35869;50.990;6.962;2023-03-23T14:28:03;100254.16;;;14.16;87.35
49979;BME280;35869;50.990;6.962;2023-03-23T14:33:05;100260.56;;;14.25;85.84
49979;BME280;35869;50.990;6.962;2023-03-23T14:38:14;100252.72;;;14.37;82.50
49979;BME280;35869;50.990;6.962;2023-03-23T14:43:18;100253.56;;;14.38;83.13
49979;BME280;35869;50.990;6.962;2023-03-23T14:48:20;100264.84;;;14.26;85.28
49979;BME280;35869;50.990;6.962;2023-03-23T14:53:24;100265.44;;;14.29;85.40
49979;BME280;35869;50.990;6.962;2023-03-23T14:58:24;100266.91;;;14.21;88.63
49979;BME280;35869;50.990;6.962;2023-03-23T15:03:26;100270.78;;;14.15;89.06
49979;BME280;35869;50.990;6.962;2023-03-23T15:08:30;100252.13;;;14.07;89.92
49979;BME280;35869;50.990;6.962;2023-03-23T15:13:32;100250.28;;;14.09;89.71
49979;BME280;35869;50.990;6.962;2023-03-23T15:18:36;100236.44;;;14.07;89.07
49979;BME280;35869;50.990;6.962;2023-03-23T15:23:42;100221.34;;;13.72;91.28
49979;BME280;35869;50.990;6.962;2023-03-23T15:28:43;100204.19;;;13.68;90.22
49979;BME280;35869;50.990;6.962;2023-03-23T15:33:43;100193.13;;;13.77;90.52
49979;BME280;35869;50.990;6.962;2023-03-23T15:38:44;100186.78;;;13.94;88.23
49979;BME280;35869;50.990;6.962;2023-03-23T15:43:56;100208.50;;;13.82;86.74
49979;BME280;35869;50.990;6.962;2023-03-23T15:54:01;100203.31;;;13.95;87.52
49979;BME280;35869;50.990;6.962;2023-03-23T15:59:01;100201.75;;;13.92;86.54
49979;BME280;35869;50.990;6.962;2023-03-23T16:09:11;100189.81;;;14.01;86.34
49979;BME280;35869;50.990;6.962;2023-03-23T16:14:12;100191.19;;;13.94;83.71
49979;BME280;35869;50.990;6.962;2023-03-23T16:19:13;100172.59;;;13.98;81.96
49979;BME280;35869;50.990;6.962;2023-03-23T16:24:13;100195.28;;;13.98;82.22
49979;BME280;35869;50.990;6.962;2023-03-23T16:29:15;100189.81;;;14.01;82.88
49979;BME280;35869;50.990;6.962;2023-03-23T16:34:16;100189.75;;;13.90;83.63
49979;BME280;35869;50.990;6.962;2023-03-23T16:39:16;100185.94;;;13.81;82.32
49979;BME280;35869;50.990;6.962;2023-03-23T16:44:16;100173.19;;;13.76;82.39
49979;BME280;35869;50.990;6.962;2023-03-23T16:49:16;100174.84;;;13.77;81.91
49979;BME280;35869;50.990;6.962;2023-03-23T16:54:16;100186.88;;;13.67;81.60
49979;BME280;35869;50.990;6.962;2023-03-23T16:59:17;100185.50;;;13.74;81.10
49979;BME280;35869;50.990;6.962;2023-03-23T17:04:17;100194.06;;;13.64;81.87
49979;BME280;35869;50.990;6.962;2023-03-23T17:09:17;100198.97;;;13.68;80.57
49979;BME280;35869;50.990;6.962;2023-03-23T17:14:17;100202.09;;;13.60;81.12
49979;BME280;35869;50.990;6.962;2023-03-23T17:19:18;100222.66;;;13.65;80.71
49979;BME280;35869;50.990;6.962;2023-03-23T17:24:18;100222.34;;;13.57;80.14
49979;BME280;35869;50.990;6.962;2023-03-23T17:29:19;100231.13;;;13.56;81.43
49979;BME280;35869;50.990;6.962;2023-03-23T17:34:19;100232.84;;;13.43;79.88
49979;BME280;35869;50.990;6.962;2023-03-23T17:39:19;100221.69;;;13.53;79.51
49979;BME280;35869;50.990;6.962;2023-03-23T17:44:19;100233.34;;;13.48;78.86
49979;BME280;35869;50.990;6.962;2023-03-23T17:49:20;100223.03;;;13.46;79.25
49979;BME280;35869;50.990;6.962;2023-03-23T17:54:20;100221.00;;;13.37;78.08
49979;BME280;35869;50.990;6.962;2023-03-23T17:59:20;100229.06;;;13.47;77.92
49979;BME280;35869;50.990;6.962;2023-03-23T18:04:20;100222.69;;;13.38;77.52
49979;BME280;35869;50.990;6.962;2023-03-23T18:09:21;100230.91;;;13.32;79.91
49979;BME280;35869;50.990;6.962;2023-03-23T18:14:21;100222.44;;;13.28;80.47
49979;BME280;35869;50.990;6.962;2023-03-23T18:19:21;100215.44;;;13.15;79.81
49979;BME280;35869;50.990;6.962;2023-03-23T18:24:22;100200.72;;;13.14;80.35
49979;BME280;35869;50.990;6.962;2023-03-23T18:29:22;100192.97;;;13.12;79.43
49979;BME280;35869;50.990;6.962;2023-03-23T18:34:22;100208.28;;;13.04;80.25
49979;BME280;35869;50.990;6.962;2023-03-23T18:39:22;100197.84;;;13.04;80.79
49979;BME280;35869;50.990;6.962;2023-03-23T18:44:22;100195.31;;;13.17;78.65
49979;BME280;35869;50.990;6.962;2023-03-23T18:49:23;100192.97;;;13.12;79.54
49979;BME280;35869;50.990;6.962;2023-03-23T18:54:23;100175.66;;;13.25;77.28
49979;BME280;35869;50.990;6.962;2023-03-23T18:59:23;100176.19;;;13.16;78.59
49979;BME280;35869;50.990;6.962;2023-03-23T19:04:23;100165.22;;;13.11;80.22
49979;BME280;35869;50.990;6.962;2023-03-23T19:09:24;100155.72;;;13.10;79.42
49979;BME280;35869;50.990;6.962;2023-03-23T19:14:24;100147.44;;;13.03;81.31
49979;BME280;35869;50.990;6.962;2023-03-23T19:19:24;100144.84;;;13.03;80.43
49979;BME280;35869;50.990;6.962;2023-03-23T19:24:25;100139.56;;;12.91;83.04
49979;BME280;35869;50.990;6.962;2023-03-23T19:29:25;100145.78;;;12.88;83.18
49979;BME280;35869;50.990;6.962;2023-03-23T19:34:25;100141.69;;;12.98;82.30
49979;BME280;35869;50.990;6.962;2023-03-23T19:39:25;100135.63;;;12.98;83.93
49979;BME280;35869;50.990;6.962;2023-03-23T19:44:26;100134.41;;;13.03;82.36
49979;BME280;35869;50.990;6.962;2023-03-23T19:49:26;100130.56;;;13.09;82.41
49979;BME280;35869;50.990;6.962;2023-03-23T19:54:26;100123.38;;;12.86;84.72
49979;BME280;35869;50.990;6.962;2023-03-23T19:59:27;100133.41;;;12.92;83.79
49979;BME280;35869;50.990;6.962;2023-03-23T20:04:27;100135.19;;;12.91;83.94
49979;BME280;35869;50.990;6.962;2023-03-23T20:09:27;100143.00;;;12.91;83.63
49979;BME280;35869;50.990;6.962;2023-03-23T20:14:27;100134.63;;;12.86;85.32
49979;BME280;35869;50.990;6.962;2023-03-23T20:19:27;100120.56;;;12.89;85.55
49979;BME280;35869;50.990;6.962;2023-03-23T20:24:28;100120.59;;;13.01;83.54
49979;BME280;35869;50.990;6.962;2023-03-23T20:29:28;100114.38;;;13.04;83.60
49979;BME280;35869;50.990;6.962;2023-03-23T20:34:28;100108.66;;;13.12;82.33
49979;BME280;35869;50.990;6.962;2023-03-23T20:39:31;100093.72;;;13.28;80.46
49979;BME280;35869;50.990;6.962;2023-03-23T20:44:32;100090.66;;;13.21;81.25
49979;BME280;35869;50.990;6.962;2023-03-23T20:49:36;100078.81;;;13.16;80.97
49979;BME280;35869;50.990;6.962;2023-03-23T20:54:37;100075.09;;;13.20;81.91
49979;BME280;35869;50.990;6.962;2023-03-23T20:59:37;100070.88;;;13.17;82.43
49979;BME280;35869;50.990;6.962;2023-03-23T21:04:37;100068.09;;;13.20;81.08
49979;BME280;35869;50.990;6.962;2023-03-23T21:09:39;100067.75;;;13.12;81.76
49979;BME280;35869;50.990;6.962;2023-03-23T21:14:40;100060.19;;;13.22;81.48
49979;BME280;35869;50.990;6.962;2023-03-23T21:19:40;100059.63;;;13.17;82.36
49979;BME280;35869;50.990;6.962;2023-03-23T21:24:40;100057.13;;;13.15;82.88
49979;BME280;35869;50.990;6.962;2023-03-23T21:29:40;100057.13;;;13.15;83.38
49979;BME280;35869;50.990;6.962;2023-03-23T21:34:41;100054.84;;;13.23;83.17
49979;BME280;35869;50.990;6.962;2023-03-23T21:39:41;100061.06;;;13.08;85.60
49979;BME280;35869;50.990;6.962;2023-03-23T21:44:42;100061.50;;;13.15;85.57
49979;BME280;35869;50.990;6.962;2023-03-23T21:49:42;100053.56;;;13.16;84.54
49979;BME280;35869;50.990;6.962;2023-03-23T21:54:42;100044.59;;;13.07;85.09
49979;BME280;35869;50.990;6.962;2023-03-23T21:59:42;100046.69;;;13.15;85.59
49979;BME280;35869;50.990;6.962;2023-03-23T22:04:43;100057.91;;;13.03;86.60
49979;BME280;35869;50.990;6.962;2023-03-23T22:09:44;100054.94;;;12.95;87.50
49979;BME280;35869;50.990;6.962;2023-03-23T22:14:44;100045.41;;;13.08;86.44
49979;BME280;35869;50.990;6.962;2023-03-23T22:19:44;100047.88;;;12.97;88.77
49979;BME280;35869;50.990;6.962;2023-03-23T22:24:45;100043.22;;;13.02;87.88
49979;BME280;35869;50.990;6.962;2023-03-23T22:29:45;100036.25;;;12.88;90.66
49979;BME280;35869;50.990;6.962;2023-03-23T22:34:45;100033.06;;;12.97;90.20
49979;BME280;35869;50.990;6.962;2023-03-23T22:39:45;100027.41;;;12.91;91.33
49979;BME280;35869;50.990;6.962;2023-03-23T22:44:46;100016.84;;;12.79;92.52
49979;BME280;35869;50.990;6.962;2023-03-23T22:49:46;100007.34;;;12.78;93.33
49979;BME280;35869;50.990;6.962;2023-03-23T22:54:46;100002.66;;;12.84;93.23
49979;BME280;35869;50.990;6.962;2023-03-23T22:59:47;99991.69;;;12.78;92.96
49979;BME280;35869;50.990;6.962;2023-03-23T23:04:47;99971.34;;;12.84;92.66
49979;BME280;35869;50.990;6.962;2023-03-23T23:09:47;99966.22;;;12.69;93.51
49979;BME280;35869;50.990;6.962;2023-03-23T23:14:48;99958.94;;;12.74;92.53
49979;BME280;35869;50.990;6.962;2023-03-23T23:19:48;99954.00;;;12.70;94.11
49979;BME280;35869;50.990;6.962;2023-03-23T23:24:48;99955.97;;;12.66;93.61
49979;BME280;35869;50.990;6.962;2023-03-23T23:29:48;99946.28;;;12.68;92.58
49979;BME280;35869;50.990;6.962;2023-03-23T23:34:49;99938.25;;;12.71;92.57
49979;BME280;35869;50.990;6.962;2023-03-23T23:39:49;99924.91;;;12.63;92.82
49979;BME280;35869;50.990;6.962;2023-03-23T23:44:49;99917.81;;;12.65;91.98
49979;BME280;35869;50.990;6.962;2023-03-23T23:49:49;99915.41;;;12.62;93.79
49979;BME280;35869;50.990;6.962;2023-03-23T23:54:50;99909.44;;;12.60;93.32
49979;BME280;35869;50.990;6.962;2023-03-23T23:59:50;99904.44;;;12.57;93.21
